createdAt,value
2018-01-24T07:20:28.517Z,10.90
2018-01-24T07:22:56.045Z,11.30
2018-01-24T07:25:24.299Z,11.40
2018-01-24T07:27:51.950Z,11.30
2018-01-24T07:30:19.448Z,11.40
2018-01-24T07:32:46.928Z,11.40
2018-01-24T07:35:14.437Z,11.50
2018-01-24T07:37:41.957Z,11.50
2018-01-24T07:40:09.462Z,11.50
2018-01-24T07:42:36.977Z,11.60
2018-01-24T07:45:04.472Z,11.60
2018-01-24T07:47:31.961Z,11.60
2018-01-24T07:50:00.234Z,11.60
2018-01-24T07:52:28.498Z,11.70
2018-01-24T07:54:56.751Z,11.70
2018-01-24T07:57:24.268Z,11.70
2018-01-24T07:59:51.773Z,11.70
2018-01-24T08:02:19.275Z,11.60
2018-01-24T08:04:46.805Z,11.70
2018-01-24T08:07:14.293Z,11.70
2018-01-24T08:09:41.802Z,11.70
2018-01-24T08:12:09.323Z,11.70
2018-01-24T08:14:36.817Z,11.70
2018-01-24T08:17:04.317Z,11.70
2018-01-24T08:19:31.900Z,11.80
2018-01-24T08:21:59.390Z,11.80
2018-01-24T08:24:26.877Z,11.80
2018-01-24T08:26:55.158Z,11.90
2018-01-24T08:29:23.412Z,12.00
2018-01-24T13:15:11.829Z,14.70
2018-01-24T13:17:40.081Z,14.70
2018-01-24T13:20:07.577Z,14.60
2018-01-24T13:22:35.857Z,14.70
2018-01-24T13:25:04.138Z,14.70
2018-01-24T13:27:32.400Z,14.70
2018-01-24T13:29:59.969Z,14.60
2018-01-24T13:32:28.224Z,14.60
2018-01-24T13:34:55.834Z,14.60
2018-01-24T13:37:23.349Z,14.60
2018-01-24T13:39:51.626Z,14.60
2018-01-24T13:42:19.943Z,14.60
2018-01-24T13:44:47.485Z,14.60
2018-01-24T13:47:15.013Z,14.60
2018-01-24T13:49:42.567Z,14.70
2018-01-24T13:52:11.602Z,14.60
2018-01-24T13:54:39.549Z,14.60
2018-01-24T13:57:07.806Z,14.70
2018-01-24T13:59:35.406Z,14.70
2018-01-24T14:02:02.912Z,14.70
2018-01-24T14:04:30.405Z,14.60
2018-01-24T14:06:58.690Z,14.60
2018-01-24T14:09:26.961Z,14.60
2018-01-24T14:11:55.213Z,14.60
2018-01-24T14:14:22.739Z,14.60
2018-01-24T14:16:51.249Z,14.60
2018-01-24T14:19:18.776Z,14.60
2018-01-24T14:21:47.352Z,14.60
2018-01-24T14:24:14.846Z,14.60
2018-01-24T14:26:42.337Z,14.70
2018-01-24T14:29:10.618Z,14.60
2018-01-24T14:31:38.896Z,14.60
2018-01-24T14:34:07.169Z,14.50
2018-01-24T14:36:35.453Z,14.50
2018-01-24T14:39:03.716Z,14.50
2018-01-24T14:41:31.977Z,14.50
2018-01-24T14:43:59.490Z,14.50
2018-01-24T14:46:27.000Z,14.50
2018-01-24T14:48:54.504Z,14.50
2018-01-24T14:51:22.026Z,14.50
2018-01-24T14:53:49.537Z,14.50
2018-01-24T14:56:17.033Z,14.50
2018-01-24T14:58:44.577Z,14.40
2018-01-24T15:01:12.069Z,14.50
2018-01-24T15:03:40.331Z,14.40
2018-01-24T15:06:08.655Z,14.40
2018-01-24T15:08:36.147Z,14.40
2018-01-24T15:11:03.636Z,14.40
2018-01-24T15:13:31.953Z,14.30
2018-01-24T15:15:59.457Z,14.40
2018-01-24T15:18:27.756Z,14.40
2018-01-24T15:20:56.063Z,14.30
2018-01-24T15:23:23.566Z,14.30
2018-01-24T15:25:51.061Z,14.30
2018-01-24T15:28:19.357Z,14.20
2018-01-24T15:30:46.923Z,14.30
2018-01-24T15:33:14.414Z,14.20
2018-01-24T15:35:41.931Z,14.20
2018-01-24T15:38:09.501Z,14.20
2018-01-24T15:40:36.997Z,14.20
2018-01-24T15:43:04.597Z,14.20
2018-01-24T15:45:32.861Z,14.10
2018-01-24T15:48:01.138Z,14.10
2018-01-24T15:50:29.445Z,14.10
2018-01-24T15:52:56.951Z,14.10
2018-01-24T15:55:24.458Z,14.10
2018-01-24T15:57:51.993Z,14.10
2018-01-24T16:00:19.546Z,14.10
2018-01-24T16:02:47.821Z,14.10
2018-01-24T16:05:16.857Z,14.00
2018-01-24T16:07:44.377Z,14.00
2018-01-24T16:10:12.629Z,14.00
2018-01-24T16:12:40.137Z,14.00
2018-01-24T16:15:07.654Z,14.00
2018-01-24T16:17:35.168Z,14.00
2018-01-24T16:20:02.726Z,14.00
2018-01-24T16:22:30.234Z,14.00
2018-01-24T16:24:57.747Z,14.00
2018-01-24T16:27:25.300Z,14.00
2018-01-24T16:29:52.801Z,14.00
2018-01-24T16:32:20.292Z,14.00
2018-01-24T16:34:48.604Z,14.00
2018-01-24T16:37:16.101Z,13.90
2018-01-24T16:39:43.595Z,13.90
2018-01-24T16:42:11.893Z,13.90
2018-01-24T16:44:39.390Z,13.90
2018-01-24T16:47:06.890Z,13.90
2018-01-24T16:49:35.173Z,13.90
2018-01-24T16:52:02.678Z,13.90
2018-01-24T16:54:30.205Z,13.90
2018-01-24T16:56:57.721Z,13.90
2018-01-24T16:59:25.993Z,13.90
2018-01-24T17:01:53.489Z,13.90
2018-01-24T17:04:21.065Z,13.90
2018-01-24T17:06:48.545Z,13.90
2018-01-24T17:09:16.033Z,13.80
2018-01-24T17:11:43.573Z,13.80
2018-01-24T17:14:11.066Z,13.80
2018-01-24T17:16:39.321Z,13.80
2018-01-24T17:19:06.888Z,13.80
2018-01-24T17:21:34.376Z,13.70
2018-01-24T17:24:01.913Z,13.70
2018-01-24T17:26:30.205Z,13.70
2018-01-24T17:28:58.477Z,13.80
2018-01-24T17:31:26.782Z,13.70
2018-01-24T17:33:54.280Z,13.70
2018-01-24T17:36:21.766Z,13.70
2018-01-24T17:38:50.103Z,13.70
2018-01-24T17:41:17.565Z,13.70
2018-01-24T17:43:45.058Z,13.70
2018-01-24T17:46:13.342Z,13.60
2018-01-24T17:48:41.595Z,13.60
2018-01-24T17:51:09.084Z,13.60
2018-01-24T17:53:37.356Z,13.60
2018-01-24T17:56:05.616Z,13.60
2018-01-24T17:58:33.878Z,13.60
2018-01-24T18:01:01.414Z,13.60
2018-01-24T18:03:28.986Z,13.50
2018-01-24T18:05:56.478Z,13.50
2018-01-24T18:08:24.758Z,13.50
2018-01-24T18:10:53.014Z,13.50
2018-01-24T18:13:20.523Z,13.50
2018-01-24T18:15:48.043Z,13.50
2018-01-24T18:18:16.301Z,13.40
2018-01-24T18:20:43.790Z,13.50
2018-01-24T18:23:12.069Z,13.40
2018-01-24T18:25:40.340Z,13.40
2018-01-24T18:28:08.651Z,13.40
